Latest Weather Observations for Parndana

IDS60801

Issued at 6:01 pm CDT Tuesday 17 October 2017 (issued every 30 minutes, with the page automatically refreshed every 10 minutes)

About weather observations | Map of weather stations | Latest weather observations for SA | Other Formats
Station Details ID: 022843 Name: PARNDANA CFS AWS Lat: -35.79 Lon: 137.25 Height: 165.0 m
Data from the previous 72 hours. | See also: Recent months at Parndana
Date/Time
CDT
Temp
°C
App
Temp
°C
Dew
Point
°C
Rel
Hum
%
Delta-T
°C
Wind Press
QNH
hPa
Press
MSL
hPa
Rain since
9am
mm
Dir  Spd
km/h
Gust
km/h
Spd
kts
Gust
kts
17/06:00pm 25.5 22.7 11.3 41 8.1 NE 17 22 9 12 - - 0.0
17/05:30pm 26.9 23.2 9.3 33 9.8 NNE 19 28 10 15 - - 0.0
17/05:00pm 26.2 23.2 9.1 34 9.4 N 15 20 8 11 - - 0.0
17/04:30pm 26.5 23.4 10.2 36 9.2 N 17 28 9 15 - - 0.0
17/04:00pm 26.9 22.5 8.8 32 9.9 N 22 35 12 19 - - 0.0
17/03:30pm 27.6 23.3 9.4 32 10.1 N 22 39 12 21 - - 0.0
17/03:00pm 27.1 22.1 10.8 36 9.3 N 28 37 15 20 - - 0.0
17/02:30pm 27.0 21.1 8.9 32 10.0 N 30 41 16 22 - - 0.0
17/02:00pm 27.0 19.6 8.4 31 10.2 N 37 50 20 27 - - 0.0
17/01:51pm 27.0 20.4 8.4 31 10.2 N 33 54 18 29 - - 0.0
17/01:30pm 27.0 20.1 8.9 32 10.0 N 35 50 19 27 - - 0.0
17/01:00pm 26.9 19.8 9.7 34 9.6 N 37 52 20 28 - - 0.0
17/12:30pm 26.7 19.2 9.5 34 9.6 N 39 59 21 32 - - 0.0
17/12:22pm 26.5 19.0 9.4 34 9.5 N 39 59 21 32 - - 0.0
17/12:00pm 26.3 19.6 9.6 35 9.3 N 35 50 19 27 - - 0.0
17/11:46am 26.3 19.8 10.5 37 8.9 N 35 56 19 30 - - 0.0
17/11:30am 26.2 19.1 10.8 38 8.7 N 39 56 21 30 - - 0.0
17/11:21am 26.1 20.0 10.3 37 8.9 N 33 52 18 28 - - 0.0
17/11:00am 26.0 20.5 11.7 41 8.2 N 32 44 17 24 - - 0.0
17/10:30am 25.4 19.9 11.9 43 7.8 N 32 43 17 23 - - 0.0
17/10:00am 24.9 19.6 11.1 42 7.8 N 30 43 16 23 - - 0.0
17/09:30am 24.6 17.8 10.5 41 7.9 N 37 50 20 27 - - 0.0
17/09:00am 23.8 17.6 10.1 42 7.6 N 33 52 18 28 - - 0.2
17/08:30am 22.7 16.4 9.8 44 7.1 N 33 46 18 25 - - 0.2
17/08:00am 21.7 16.4 9.9 47 6.4 N 28 39 15 21 - - 0.2
17/07:30am 21.0 15.6 9.6 48 6.2 N 28 37 15 20 - - 0.2
17/07:00am 20.6 15.4 8.9 47 6.2 N 26 37 14 20 - - 0.2
17/06:30am 21.0 15.8 8.9 46 6.4 N 26 37 14 20 - - 0.2
17/06:00am 21.0 15.7 8.6 45 6.6 N 26 35 14 19 - - 0.2
17/05:30am 21.2 16.0 8.8 45 6.6 N 26 35 14 19 - - 0.2
17/05:00am 21.2 16.8 8.8 45 6.6 N 22 30 12 16 - - 0.2
17/04:30am 20.1 16.2 9.4 50 5.7 NNE 20 30 11 16 - - 0.2
17/04:00am 20.0 16.4 9.9 52 5.5 NNE 19 28 10 15 - - 0.2
17/03:30am 19.4 15.8 10.7 57 4.8 NE 20 28 11 15 - - 0.2
17/03:00am 19.3 15.7 10.6 57 4.7 NE 20 30 11 16 - - 0.2
17/02:30am 18.5 15.2 10.8 61 4.2 NE 19 24 10 13 - - 0.2
17/02:00am 18.8 15.5 10.9 60 4.3 NE 19 24 10 13 - - 0.2
17/01:30am 18.8 15.3 10.9 60 4.3 NE 20 32 11 17 - - 0.2
17/01:00am 19.4 14.2 10.4 56 4.9 NE 28 35 15 19 - - 0.2
17/12:30am 19.3 14.9 10.3 56 4.9 NE 24 33 13 18 - - 0.2
17/12:00am 19.9 15.8 10.0 53 5.4 NE 22 30 12 16 - - 0.2
 
Date/Time
CDT
Temp
°C
App
Temp
°C
Dew
Point
°C
Rel
Hum
%
Delta-T
°C
Wind Press
QNH
hPa
Press
MSL
hPa
Rain since
9am
mm
Dir  Spd
km/h
Gust
km/h
Spd
kts
Gust
kts
16/11:30pm 19.6 16.0 9.8 53 5.3 ENE 19 28 10 15 - - 0.2
16/11:00pm 18.8 15.1 10.1 57 4.7 ENE 20 26 11 14 - - 0.2
16/10:30pm 18.6 15.6 10.7 60 4.3 ENE 17 20 9 11 - - 0.2
16/10:00pm 18.9 15.3 10.7 59 4.5 ENE 20 26 11 14 - - 0.2
16/09:30pm 19.4 16.1 10.9 58 4.7 ENE 19 24 10 13 - - 0.2
16/09:00pm 18.3 16.7 11.6 65 3.7 E 11 15 6 8 - - 0.2
16/08:30pm 19.6 18.5 11.9 61 4.3 E 9 13 5 7 - - 0.2
16/08:00pm 19.5 18.2 12.5 64 4.0 E 11 15 6 8 - - 0.2
16/07:30pm 20.5 19.6 12.7 61 4.4 E 9 13 5 7 - - 0.2
16/07:00pm 21.6 20.5 13.0 58 4.9 ENE 11 15 6 8 - - 0.2
16/06:30pm 23.3 - 13.2 53 5.9 - - - - - - - 0.2
16/06:00pm 24.5 - 12.5 47 6.9 - - - - - - - 0.2
16/05:30pm 25.2 - 12.8 46 7.2 - - - - - - - 0.2
16/05:00pm 25.6 - 11.0 40 8.3 - - - - - - - 0.2
16/04:30pm 26.0 - 14.5 49 6.9 - - - - - - - 0.2
16/04:00pm 26.1 - 12.2 42 8.1 - - - - - - - 0.2
16/03:30pm 26.4 23.4 12.1 41 8.3 NE 19 26 10 14 - - 0.2
16/03:00pm 26.4 23.4 10.5 37 9.0 NE 17 24 9 13 - - 0.2
16/02:30pm 26.4 24.6 13.2 44 7.8 NE 15 20 8 11 - - 0.2
16/02:00pm 26.2 23.7 11.2 39 8.6 NE 15 24 8 13 - - 0.2
16/01:30pm 25.9 23.2 11.6 40 8.2 ENE 17 24 9 13 - - 0.2
16/01:00pm 25.6 23.2 12.8 45 7.5 ENE 17 22 9 12 - - 0.2
16/12:30pm 25.0 22.4 13.2 48 6.9 NE 19 24 10 13 - - 0.2
16/12:00pm 24.7 22.5 14.5 53 6.1 NNE 19 24 10 13 - - 0.0
16/11:30am 23.6 21.7 14.3 56 5.5 NNE 17 24 9 13 - - 0.0
16/11:00am 22.6 21.3 14.7 61 4.7 NNE 15 20 8 11 - - 0.0
16/10:30am 21.0 18.6 13.7 63 4.2 NNE 19 24 10 13 - - 0.0
16/10:00am 20.2 19.1 14.3 69 3.5 NNE 13 19 7 10 - - 0.0
16/09:30am 16.5 17.1 15.7 95 0.5 NE 7 11 4 6 - - 0.0
16/09:00am 15.1 15.5 14.8 98 0.2 NE 6 7 3 4 - - 0.2
16/08:30am 13.3 13.1 13.0 98 0.2 E 6 7 3 4 - - 0.2
16/08:00am 12.9 12.6 12.6 98 0.2 ESE 6 9 3 5 - - 0.2
16/07:30am 12.4 11.7 12.1 98 0.2 ESE 7 9 4 5 - - 0.2
16/07:00am 12.1 11.5 11.8 98 0.2 SE 6 7 3 4 - - 0.2
16/06:30am 12.3 11.6 12.0 98 0.2 ESE 7 9 4 5 - - 0.2
16/06:00am 12.4 11.3 12.1 98 0.2 ESE 9 11 5 6 - - 0.2
16/05:30am 12.5 11.5 12.2 98 0.2 ESE 9 13 5 7 - - 0.2
16/05:00am 12.6 12.0 12.3 98 0.2 SE 7 11 4 6 - - 0.2
16/04:30am 12.4 11.3 12.1 98 0.2 ESE 9 13 5 7 - - 0.0
16/04:00am 12.5 11.9 12.2 98 0.2 ESE 7 11 4 6 - - 0.0
16/03:30am 12.3 10.8 12.0 98 0.2 E 11 15 6 8 - - 0.0
16/03:00am 12.2 10.7 11.9 98 0.2 ESE 11 17 6 9 - - 0.0
16/02:30am 12.1 11.0 11.8 98 0.2 ESE 9 13 5 7 - - 0.0
16/02:00am 11.9 10.7 11.6 98 0.2 ESE 9 13 5 7 - - 0.0
16/01:30am 11.3 10.8 10.8 97 0.3 SSE 4 6 2 3 - - 0.0
16/01:00am 11.2 10.1 10.7 97 0.3 SSE 7 9 4 5 - - 0.0
16/12:30am 10.7 9.5 10.2 97 0.3 SSE 7 7 4 4 - - 0.0
16/12:00am 10.6 9.3 10.1 97 0.3 SSE 7 9 4 5 - - 0.0
 
Date/Time
CDT
Temp
°C
App
Temp
°C
Dew
Point
°C
Rel
Hum
%
Delta-T
°C
Wind Press
QNH
hPa
Press
MSL
hPa
Rain since
9am
mm
Dir  Spd
km/h
Gust
km/h
Spd
kts
Gust
kts
15/11:30pm 10.4 8.7 9.9 97 0.3 SSE 9 11 5 6 - - 0.0
15/11:00pm 10.4 8.0 9.9 97 0.3 SE 13 15 7 8 - - 0.0
15/10:30pm 9.0 6.5 8.4 96 0.3 SSE 11 13 6 7 - - 0.0
15/10:00pm 9.3 7.7 8.7 96 0.3 SSE 7 11 4 6 - - 0.0
15/09:30pm 10.0 8.8 9.4 96 0.3 S 6 7 3 4 - - 0.0
15/09:00pm 10.4 7.9 9.6 95 0.4 SE 13 17 7 9 - - 0.0
15/08:30pm 10.4 8.9 9.3 93 0.6 S 7 9 4 5 - - 0.0
15/08:00pm 11.1 9.4 9.7 91 0.7 ESE 9 13 5 7 - - 0.0
15/07:30pm 12.1 9.8 10.3 89 0.9 ESE 13 20 7 11 - - 0.0
15/07:00pm 13.4 10.9 10.9 85 1.3 ESE 15 22 8 12 - - 0.0
15/06:30pm 14.2 10.7 11.0 81 1.7 ESE 20 26 11 14 - - 0.0
15/06:00pm 15.0 11.7 11.6 80 1.8 ESE 20 24 11 13 - - 0.0
15/05:30pm 15.5 12.1 11.3 76 2.3 ESE 20 30 11 16 - - 0.0
15/05:00pm 16.6 13.2 12.6 77 2.2 ESE 22 30 12 16 - - 0.0
15/04:30pm 16.6 12.7 12.0 74 2.5 ESE 24 32 13 17 - - 0.0
15/04:00pm 17.4 13.8 11.9 70 3.0 ESE 22 32 12 17 - - 0.0
15/03:30pm 18.1 15.3 13.2 73 2.8 ESE 20 28 11 15 - - 0.0
15/03:00pm 18.1 15.0 12.3 69 3.2 ESE 20 30 11 16 - - 0.0
15/02:30pm 18.5 16.2 12.9 70 3.2 ESE 17 26 9 14 - - 0.0
15/02:00pm 18.2 15.7 12.2 68 3.3 ESE 17 24 9 13 - - 0.0
15/01:30pm 18.1 15.9 13.2 73 2.8 ESE 17 22 9 12 - - 0.0
15/01:00pm 18.7 17.4 13.8 73 2.8 ESE 13 22 7 12 - - 0.0
15/12:30pm 17.9 16.4 13.2 74 2.7 SE 13 19 7 10 - - 0.0
15/12:00pm 18.1 17.4 14.2 78 2.3 SE 11 15 6 8 - - 0.0
15/11:30am 16.4 14.6 12.2 76 2.3 E 13 20 7 11 - - 0.0
15/11:00am 16.3 14.7 12.7 79 2.0 ESE 13 19 7 10 - - 0.0
15/10:30am 15.5 13.1 12.8 84 1.5 ESE 17 20 9 11 - - 0.0
15/10:00am 15.0 13.1 13.0 88 1.1 ESE 15 19 8 10 - - 0.0
15/09:30am 13.7 11.8 11.8 88 1.0 E 13 19 7 10 - - 0.0
15/09:00am 13.1 10.8 11.7 91 0.8 E 15 20 8 11 - - 0.0
15/08:30am 12.2 9.3 10.9 92 0.7 E 17 24 9 13 - - 0.0
15/08:00am 11.9 9.3 10.8 93 0.6 E 15 20 8 11 - - 0.0
15/07:30am 11.7 9.1 10.8 94 0.5 E 15 20 8 11 - - 0.0
15/07:00am 11.5 9.2 10.4 93 0.6 E 13 19 7 10 - - 0.0
15/06:30am 11.4 8.7 10.3 93 0.6 E 15 20 8 11 - - 0.0
15/06:00am 11.4 8.7 10.3 93 0.6 E 15 22 8 12 - - 0.0
15/05:30am 11.5 9.2 10.6 94 0.5 ESE 13 19 7 10 - - 0.0
15/05:00am 11.4 9.5 10.6 95 0.4 ESE 11 19 6 10 - - 0.0
15/04:30am 11.4 9.1 10.6 95 0.4 ESE 13 17 7 9 - - 0.0
15/04:00am 11.2 8.5 10.4 95 0.4 ESE 15 19 8 10 - - 0.0
15/03:30am 10.7 8.6 9.9 95 0.4 ESE 11 17 6 9 - - 0.0
15/03:00am 10.2 8.4 9.4 95 0.4 ESE 9 13 5 7 - - 0.0
15/02:30am 10.3 8.1 9.5 95 0.4 ESE 11 15 6 8 - - 0.0
15/02:00am 10.3 7.7 9.5 95 0.4 ESE 13 19 7 10 - - 0.0
15/01:30am 9.8 7.5 9.0 95 0.4 ESE 11 17 6 9 - - 0.0
15/01:00am 9.6 6.5 8.8 95 0.4 ESE 15 17 8 9 - - 0.0
15/12:30am 10.2 6.3 9.4 95 0.4 SE 20 24 11 13 - - 0.0
15/12:00am 9.4 6.3 8.8 96 0.3 SE 15 19 8 10 - - 0.0
 
Date/Time
CDT
Temp
°C
App
Temp
°C
Dew
Point
°C
Rel
Hum
%
Delta-T
°C
Wind Press
QNH
hPa
Press
MSL
hPa
Rain since
9am
mm
Dir  Spd
km/h
Gust
km/h
Spd
kts
Gust
kts
14/11:30pm 9.4 6.3 8.8 96 0.3 SE 15 19 8 10 - - 0.0
14/11:00pm 8.8 5.9 8.2 96 0.3 SSE 13 15 7 8 - - 0.0
14/10:30pm 9.0 6.5 8.1 94 0.4 SSE 11 13 6 7 - - 0.0
14/10:00pm 9.6 6.8 8.7 94 0.4 SSE 13 17 7 9 - - 0.0
14/09:30pm 10.7 7.5 9.8 94 0.5 SE 17 22 9 12 - - 0.0
14/09:00pm 10.4 7.0 9.2 92 0.6 SSE 17 20 9 11 - - 0.0
14/08:30pm 11.2 8.3 9.6 90 0.8 SE 15 20 8 11 - - 0.0
14/08:00pm 11.5 9.0 9.6 88 1.0 SE 13 19 7 10 - - 0.0
14/07:30pm 12.2 9.7 9.6 84 1.3 SE 13 20 7 11 - - 0.0
14/07:00pm 13.4 10.6 10.0 80 1.8 SE 15 20 8 11 - - 0.0
14/06:30pm 14.7 11.7 10.7 77 2.1 SE 17 24 9 13 - - 0.0

Other Formats:

Comma delimited format used in spreadsheet applications
http://www.bom.gov.au/fwo/IDS60801/IDS60801.94807.axf

JavaScript Object Notation format (JSON) in row-major order
http://www.bom.gov.au/fwo/IDS60801/IDS60801.94807.json